sensor_id;sensor_type;location;lat;lon;timestamp;pressure;altitude;pressure_sealevel;temperature;humidity
10958;BME280;5531;42.570;23.676;2023-04-27T00:03:12;91616.72;;;7.04;79.55
10958;BME280;5531;42.570;23.676;2023-04-27T00:05:41;91625.75;;;6.86;77.87
10958;BME280;5531;42.570;23.676;2023-04-27T00:08:10;91620.13;;;6.68;78.56
10958;BME280;5531;42.570;23.676;2023-04-27T00:10:39;91619.19;;;6.54;79.98
10958;BME280;5531;42.570;23.676;2023-04-27T00:13:08;91618.94;;;6.49;80.83
10958;BME280;5531;42.570;23.676;2023-04-27T00:15:36;91624.78;;;6.36;80.08
10958;BME280;5531;42.570;23.676;2023-04-27T00:18:05;91620.28;;;6.30;79.09
10958;BME280;5531;42.570;23.676;2023-04-27T00:20:37;91624.97;;;6.19;81.19
10958;BME280;5531;42.570;23.676;2023-04-27T00:23:06;91623.69;;;6.15;81.62
10958;BME280;5531;42.570;23.676;2023-04-27T00:25:35;91623.69;;;6.15;80.94
10958;BME280;5531;42.570;23.676;2023-04-27T00:28:04;91623.34;;;6.18;79.42
10958;BME280;5531;42.570;23.676;2023-04-27T00:30:33;91625.13;;;6.03;80.30
10958;BME280;5531;42.570;23.676;2023-04-27T00:33:02;91620.38;;;6.07;80.46
10958;BME280;5531;42.570;23.676;2023-04-27T00:35:32;91629.16;;;6.05;79.77
10958;BME280;5531;42.570;23.676;2023-04-27T00:38:03;91626.34;;;5.92;79.26
10958;BME280;5531;42.570;23.676;2023-04-27T00:40:32;91628.41;;;5.82;79.32
10958;BME280;5531;42.570;23.676;2023-04-27T00:43:01;91629.66;;;5.86;79.90
10958;BME280;5531;42.570;23.676;2023-04-27T00:45:30;91632.97;;;5.80;79.39
10958;BME280;5531;42.570;23.676;2023-04-27T00:47:59;91636.28;;;5.74;81.02
10958;BME280;5531;42.570;23.676;2023-04-27T00:50:29;91641.09;;;5.77;79.29
10958;BME280;5531;42.570;23.676;2023-04-27T00:52:58;91639.78;;;5.81;81.83
10958;BME280;5531;42.570;23.676;2023-04-27T00:55:30;91639.00;;;5.80;79.58
10958;BME280;5531;42.570;23.676;2023-04-27T00:57:59;91642.22;;;5.82;79.24
10958;BME280;5531;42.570;23.676;2023-04-27T01:00:28;91648.56;;;5.80;80.80
10958;BME280;5531;42.570;23.676;2023-04-27T01:02:57;91649.47;;;5.87;79.24
10958;BME280;5531;42.570;23.676;2023-04-27T01:05:26;91657.34;;;5.79;80.02
10958;BME280;5531;42.570;23.676;2023-04-27T01:07:56;91638.41;;;5.70;80.43
10958;BME280;5531;42.570;23.676;2023-04-27T01:10:25;91636.81;;;5.69;79.45
10958;BME280;5531;42.570;23.676;2023-04-27T01:12:56;91648.91;;;5.77;80.82
10958;BME280;5531;42.570;23.676;2023-04-27T01:15:26;91648.56;;;5.80;79.60
10958;BME280;5531;42.570;23.676;2023-04-27T01:17:58;91647.47;;;5.74;78.33
10958;BME280;5531;42.570;23.676;2023-04-27T01:20:27;91643.09;;;5.75;80.05
10958;BME280;5531;42.570;23.676;2023-04-27T01:22:57;91643.84;;;5.83;79.93
10958;BME280;5531;42.570;23.676;2023-04-27T01:25:29;91639.16;;;5.79;78.46
10958;BME280;5531;42.570;23.676;2023-04-27T01:27:58;91643.09;;;5.75;79.66
10958;BME280;5531;42.570;23.676;2023-04-27T01:30:27;91641.00;;;5.70;78.61
10958;BME280;5531;42.570;23.676;2023-04-27T01:32:56;91646.72;;;5.65;78.10
10958;BME280;5531;42.570;23.676;2023-04-27T01:35:25;91643.72;;;5.77;80.13
10958;BME280;5531;42.570;23.676;2023-04-27T01:37:55;91645.22;;;5.71;78.05
10958;BME280;5531;42.570;23.676;2023-04-27T01:40:24;91647.09;;;5.62;77.96
10958;BME280;5531;42.570;23.676;2023-04-27T01:42:56;91655.25;;;5.59;78.62
10958;BME280;5531;42.570;23.676;2023-04-27T01:45:25;91654.72;;;5.64;78.88
10958;BME280;5531;42.570;23.676;2023-04-27T01:47:54;91652.19;;;5.56;78.23
10958;BME280;5531;42.570;23.676;2023-04-27T01:50:23;91651.09;;;5.50;77.99
10958;BME280;5531;42.570;23.676;2023-04-27T01:52:52;91651.03;;;5.58;78.04
10958;BME280;5531;42.570;23.676;2023-04-27T01:55:21;91654.50;;;5.50;78.61
10958;BME280;5531;42.570;23.676;2023-04-27T01:57:50;91653.66;;;5.35;77.50
10958;BME280;5531;42.570;23.676;2023-04-27T02:00:22;91654.38;;;5.44;78.71
10958;BME280;5531;42.570;23.676;2023-04-27T02:02:51;91662.47;;;5.49;76.51
10958;BME280;5531;42.570;23.676;2023-04-27T02:05:22;91652.19;;;5.32;77.97
10958;BME280;5531;42.570;23.676;2023-04-27T02:07:50;91650.44;;;5.33;78.77
10958;BME280;5531;42.570;23.676;2023-04-27T02:10:19;91647.34;;;5.29;78.73
10958;BME280;5531;42.570;23.676;2023-04-27T02:12:49;91657.69;;;5.14;77.69
10958;BME280;5531;42.570;23.676;2023-04-27T02:15:21;91653.94;;;5.17;78.56
10958;BME280;5531;42.570;23.676;2023-04-27T02:17:50;91655.38;;;5.20;79.63
10958;BME280;5531;42.570;23.676;2023-04-27T02:20:18;91655.44;;;5.11;79.03
10958;BME280;5531;42.570;23.676;2023-04-27T02:22:47;91660.34;;;5.06;77.34
10958;BME280;5531;42.570;23.676;2023-04-27T02:25:18;91656.59;;;5.09;77.98
10958;BME280;5531;42.570;23.676;2023-04-27T02:27:47;91652.38;;;5.08;77.20
10958;BME280;5531;42.570;23.676;2023-04-27T02:30:16;91652.03;;;5.11;77.55
10958;BME280;5531;42.570;23.676;2023-04-27T02:32:48;91650.63;;;5.00;77.27
10958;BME280;5531;42.570;23.676;2023-04-27T02:35:17;91658.97;;;4.95;77.75
10958;BME280;5531;42.570;23.676;2023-04-27T02:37:46;91655.88;;;4.92;78.82
10958;BME280;5531;42.570;23.676;2023-04-27T02:40:16;91656.81;;;4.99;78.54
10958;BME280;5531;42.570;23.676;2023-04-27T02:42:45;91665.06;;;5.03;78.18
10958;BME280;5531;42.570;23.676;2023-04-27T02:45:14;91667.56;;;4.96;76.76
10958;BME280;5531;42.570;23.676;2023-04-27T02:47:43;91667.66;;;5.03;77.26
10958;BME280;5531;42.570;23.676;2023-04-27T02:50:14;91667.38;;;4.98;77.01
10958;BME280;5531;42.570;23.676;2023-04-27T02:52:43;91668.34;;;4.96;76.45
10958;BME280;5531;42.570;23.676;2023-04-27T02:55:12;91669.97;;;4.98;76.52
10958;BME280;5531;42.570;23.676;2023-04-27T02:57:42;91673.72;;;4.95;76.67
10958;BME280;5531;42.570;23.676;2023-04-27T03:00:12;91677.44;;;5.01;76.72
10958;BME280;5531;42.570;23.676;2023-04-27T03:02:42;91666.97;;;4.86;75.83
10958;BME280;5531;42.570;23.676;2023-04-27T03:05:11;91665.34;;;4.85;76.23
10958;BME280;5531;42.570;23.676;2023-04-27T03:07:42;91670.25;;;4.80;76.42
10958;BME280;5531;42.570;23.676;2023-04-27T03:10:11;91681.81;;;4.69;76.34
10958;BME280;5531;42.570;23.676;2023-04-27T03:12:40;91678.38;;;4.76;76.37
10958;BME280;5531;42.570;23.676;2023-04-27T03:15:10;91680.16;;;4.76;76.73
10958;BME280;5531;42.570;23.676;2023-04-27T03:17:39;91669.28;;;4.72;76.74
10958;BME280;5531;42.570;23.676;2023-04-27T03:20:09;91680.53;;;4.65;76.93
10958;BME280;5531;42.570;23.676;2023-04-27T03:22:38;91680.00;;;4.69;77.28
10958;BME280;5531;42.570;23.676;2023-04-27T03:25:13;91681.81;;;4.69;76.63
10958;BME280;5531;42.570;23.676;2023-04-27T03:27:42;91691.53;;;4.67;77.16
10958;BME280;5531;42.570;23.676;2023-04-27T03:30:12;91691.72;;;4.65;76.34
10958;BME280;5531;42.570;23.676;2023-04-27T03:32:41;91688.53;;;4.55;76.44
10958;BME280;5531;42.570;23.676;2023-04-27T03:35:10;91697.41;;;4.61;76.82
10958;BME280;5531;42.570;23.676;2023-04-27T03:37:39;91692.84;;;4.63;77.14
10958;BME280;5531;42.570;23.676;2023-04-27T03:40:13;91699.03;;;4.62;77.09
10958;BME280;5531;42.570;23.676;2023-04-27T03:42:42;91703.56;;;4.59;77.86
10958;BME280;5531;42.570;23.676;2023-04-27T03:45:11;91702.41;;;4.62;77.82
10958;BME280;5531;42.570;23.676;2023-04-27T03:47:41;91703.56;;;4.59;78.28
10958;BME280;5531;42.570;23.676;2023-04-27T03:50:10;91703.56;;;4.59;77.72
10958;BME280;5531;42.570;23.676;2023-04-27T03:52:39;91707.00;;;4.52;77.20
10958;BME280;5531;42.570;23.676;2023-04-27T03:55:10;91709.09;;;4.56;77.49
10958;BME280;5531;42.570;23.676;2023-04-27T03:57:43;91711.91;;;4.47;77.18
10958;BME280;5531;42.570;23.676;2023-04-27T04:00:13;91713.81;;;4.45;78.41
10958;BME280;5531;42.570;23.676;2023-04-27T04:02:43;91713.03;;;4.44;77.06
10958;BME280;5531;42.570;23.676;2023-04-27T04:05:12;91719.16;;;4.51;78.01
10958;BME280;5531;42.570;23.676;2023-04-27T04:07:42;91716.06;;;4.56;77.72
10958;BME280;5531;42.570;23.676;2023-04-27T04:10:11;91729.72;;;4.50;78.14
10958;BME280;5531;42.570;23.676;2023-04-27T04:12:42;91732.47;;;4.56;77.20
10958;BME280;5531;42.570;23.676;2023-04-27T04:15:11;91739.91;;;4.51;77.32
10958;BME280;5531;42.570;23.676;2023-04-27T04:17:41;91737.50;;;4.50;77.20
10958;BME280;5531;42.570;23.676;2023-04-27T04:20:11;91742.16;;;4.54;79.08
10958;BME280;5531;42.570;23.676;2023-04-27T04:22:40;91740.06;;;4.58;77.28
10958;BME280;5531;42.570;23.676;2023-04-27T04:25:10;91738.91;;;4.61;77.04
10958;BME280;5531;42.570;23.676;2023-04-27T04:27:42;91738.75;;;4.62;76.30
10958;BME280;5531;42.570;23.676;2023-04-27T04:30:13;91741.47;;;4.69;77.29
10958;BME280;5531;42.570;23.676;2023-04-27T04:32:42;91749.75;;;4.64;75.58
10958;BME280;5531;42.570;23.676;2023-04-27T04:35:11;91747.47;;;4.69;78.40
10958;BME280;5531;42.570;23.676;2023-04-27T04:37:42;91750.22;;;4.76;76.37
10958;BME280;5531;42.570;23.676;2023-04-27T04:40:12;91753.75;;;4.83;75.97
10958;BME280;5531;42.570;23.676;2023-04-27T04:42:44;91763.75;;;4.94;76.17
10958;BME280;5531;42.570;23.676;2023-04-27T04:45:13;91750.63;;;4.96;75.27
10958;BME280;5531;42.570;23.676;2023-04-27T04:47:42;91755.94;;;5.03;75.09
10958;BME280;5531;42.570;23.676;2023-04-27T04:50:12;91762.38;;;5.15;75.49
10958;BME280;5531;42.570;23.676;2023-04-27T04:52:41;91774.31;;;5.24;74.17
10958;BME280;5531;42.570;23.676;2023-04-27T04:55:10;91772.72;;;5.23;73.46
10958;BME280;5531;42.570;23.676;2023-04-27T04:57:39;91776.06;;;5.32;74.29
10958;BME280;5531;42.570;23.676;2023-04-27T05:00:12;91778.16;;;5.37;74.42
10958;BME280;5531;42.570;23.676;2023-04-27T05:02:41;91784.84;;;5.31;73.64
10958;BME280;5531;42.570;23.676;2023-04-27T05:05:10;91790.69;;;5.33;72.58
10958;BME280;5531;42.570;23.676;2023-04-27T05:07:39;91788.56;;;5.37;72.60
10958;BME280;5531;42.570;23.676;2023-04-27T05:10:08;91791.31;;;5.35;72.92
10958;BME280;5531;42.570;23.676;2023-04-27T05:12:37;91797.81;;;5.31;73.20
10958;BME280;5531;42.570;23.676;2023-04-27T05:15:12;91800.91;;;5.35;72.37
10958;BME280;5531;42.570;23.676;2023-04-27T05:17:41;91799.91;;;5.36;71.87
10958;BME280;5531;42.570;23.676;2023-04-27T05:20:10;91806.53;;;5.46;71.01
10958;BME280;5531;42.570;23.676;2023-04-27T05:22:39;91800.28;;;5.56;74.50
10958;BME280;5531;42.570;23.676;2023-04-27T05:25:08;91805.56;;;5.71;71.83
10958;BME280;5531;42.570;23.676;2023-04-27T05:27:37;91805.75;;;5.92;72.49
10958;BME280;5531;42.570;23.676;2023-04-27T05:30:08;91802.97;;;5.94;69.21
10958;BME280;5531;42.570;23.676;2023-04-27T05:32:39;91799.75;;;6.15;69.47
10958;BME280;5531;42.570;23.676;2023-04-27T05:35:08;91806.16;;;6.04;69.59
10958;BME280;5531;42.570;23.676;2023-04-27T05:37:38;91803.72;;;5.79;70.15
10958;BME280;5531;42.570;23.676;2023-04-27T05:40:08;91805.34;;;5.80;69.48
10958;BME280;5531;42.570;23.676;2023-04-27T05:42:37;91803.88;;;5.78;69.44
10958;BME280;5531;42.570;23.676;2023-04-27T05:45:07;91799.44;;;5.86;69.13
10958;BME280;5531;42.570;23.676;2023-04-27T05:47:39;91801.00;;;5.96;71.68
10958;BME280;5531;42.570;23.676;2023-04-27T05:50:09;91800.56;;;6.15;68.37
10958;BME280;5531;42.570;23.676;2023-04-27T05:52:38;91802.03;;;6.33;69.30
10958;BME280;5531;42.570;23.676;2023-04-27T05:55:08;91808.34;;;6.53;68.67
10958;BME280;5531;42.570;23.676;2023-04-27T05:57:38;91808.56;;;6.67;67.95
10958;BME280;5531;42.570;23.676;2023-04-27T06:00:08;91806.03;;;6.73;69.87
10958;BME280;5531;42.570;23.676;2023-04-27T06:02:40;91810.16;;;6.68;66.65
10958;BME280;5531;42.570;23.676;2023-04-27T06:05:09;91818.41;;;6.71;68.83
10958;BME280;5531;42.570;23.676;2023-04-27T06:07:38;91818.41;;;6.71;68.66
10958;BME280;5531;42.570;23.676;2023-04-27T06:10:09;91815.53;;;6.81;66.76
10958;BME280;5531;42.570;23.676;2023-04-27T06:12:39;91814.03;;;6.72;67.60
10958;BME280;5531;42.570;23.676;2023-04-27T06:15:08;91818.13;;;6.66;68.20
10958;BME280;5531;42.570;23.676;2023-04-27T06:17:40;91818.72;;;6.76;67.20
10958;BME280;5531;42.570;23.676;2023-04-27T06:20:11;91822.38;;;6.67;67.64
10958;BME280;5531;42.570;23.676;2023-04-27T06:22:40;91823.00;;;6.69;67.69
10958;BME280;5531;42.570;23.676;2023-04-27T06:25:11;91826.50;;;6.76;68.53
10958;BME280;5531;42.570;23.676;2023-04-27T06:27:40;91826.34;;;6.93;69.57
10958;BME280;5531;42.570;23.676;2023-04-27T06:30:11;91817.97;;;6.83;66.98
10958;BME280;5531;42.570;23.676;2023-04-27T06:32:42;91822.38;;;6.67;68.85
10958;BME280;5531;42.570;23.676;2023-04-27T06:35:13;91834.50;;;6.75;67.26
10958;BME280;5531;42.570;23.676;2023-04-27T06:37:42;91822.91;;;6.77;68.70
10958;BME280;5531;42.570;23.676;2023-04-27T06:40:12;91815.00;;;6.86;67.59
10958;BME280;5531;42.570;23.676;2023-04-27T06:42:41;91817.44;;;6.87;67.53
10958;BME280;5531;42.570;23.676;2023-04-27T06:45:10;91822.72;;;6.94;67.49
10958;BME280;5531;42.570;23.676;2023-04-27T06:47:42;91822.19;;;6.98;67.88
10958;BME280;5531;42.570;23.676;2023-04-27T06:50:11;91820.41;;;7.14;68.15
10958;BME280;5531;42.570;23.676;2023-04-27T06:52:40;91820.59;;;7.12;66.54
10958;BME280;5531;42.570;23.676;2023-04-27T06:55:09;91825.06;;;7.19;67.25
10958;BME280;5531;42.570;23.676;2023-04-27T06:57:38;91823.09;;;7.21;65.71
10958;BME280;5531;42.570;23.676;2023-04-27T07:00:08;91820.41;;;7.29;66.54
10958;BME280;5531;42.570;23.676;2023-04-27T07:02:38;91822.66;;;7.32;67.49
10958;BME280;5531;42.570;23.676;2023-04-27T07:05:11;91823.25;;;7.34;67.04
10958;BME280;5531;42.570;23.676;2023-04-27T07:07:40;91822.53;;;7.40;65.79
10958;BME280;5531;42.570;23.676;2023-04-27T07:10:09;91817.44;;;7.32;66.77
10958;BME280;5531;42.570;23.676;2023-04-27T07:12:39;91814.00;;;7.46;67.96
10958;BME280;5531;42.570;23.676;2023-04-27T07:15:08;91814.53;;;7.78;68.46
10958;BME280;5531;42.570;23.676;2023-04-27T07:17:38;91821.44;;;7.86;65.22
10958;BME280;5531;42.570;23.676;2023-04-27T07:20:10;91816.41;;;8.06;68.90
10958;BME280;5531;42.570;23.676;2023-04-27T07:22:40;91826.03;;;8.27;67.29
10958;BME280;5531;42.570;23.676;2023-04-27T07:25:09;91829.78;;;8.39;64.83
10958;BME280;5531;42.570;23.676;2023-04-27T07:27:39;91825.97;;;8.42;62.00
10958;BME280;5531;42.570;23.676;2023-04-27T07:30:09;91825.25;;;8.48;62.88
10958;BME280;5531;42.570;23.676;2023-04-27T07:32:39;91816.69;;;8.54;63.58
10958;BME280;5531;42.570;23.676;2023-04-27T07:35:11;91816.59;;;8.69;64.83
10958;BME280;5531;42.570;23.676;2023-04-27T07:37:41;91827.53;;;8.86;60.20
10958;BME280;5531;42.570;23.676;2023-04-27T07:40:11;91830.78;;;8.88;61.14
10958;BME280;5531;42.570;23.676;2023-04-27T07:42:42;91824.91;;;8.86;65.17
10958;BME280;5531;42.570;23.676;2023-04-27T07:45:11;91816.91;;;8.88;61.99
10958;BME280;5531;42.570;23.676;2023-04-27T07:47:42;91820.38;;;8.95;61.63
10958;BME280;5531;42.570;23.676;2023-04-27T07:50:14;91823.38;;;8.92;59.16
10958;BME280;5531;42.570;23.676;2023-04-27T07:52:49;91815.25;;;8.80;61.74
10958;BME280;5531;42.570;23.676;2023-04-27T07:55:18;91824.19;;;8.99;61.81
10958;BME280;5531;42.570;23.676;2023-04-27T07:57:48;91823.72;;;9.17;59.47
10958;BME280;5531;42.570;23.676;2023-04-27T08:00:18;91821.28;;;9.15;59.41
10958;BME280;5531;42.570;23.676;2023-04-27T08:02:48;91817.69;;;9.16;58.79
10958;BME280;5531;42.570;23.676;2023-04-27T08:05:20;91825.88;;;9.07;62.69
10958;BME280;5531;42.570;23.676;2023-04-27T08:07:49;91814.13;;;9.24;61.33
10958;BME280;5531;42.570;23.676;2023-04-27T08:10:19;91820.91;;;9.18;61.64
10958;BME280;5531;42.570;23.676;2023-04-27T08:12:49;91829.06;;;9.37;61.13
10958;BME280;5531;42.570;23.676;2023-04-27T08:15:18;91828.63;;;9.33;58.81
10958;BME280;5531;42.570;23.676;2023-04-27T08:17:48;91823.31;;;9.20;59.74
10958;BME280;5531;42.570;23.676;2023-04-27T08:20:20;91827.59;;;9.28;59.13
10958;BME280;5531;42.570;23.676;2023-04-27T08:22:50;91818.38;;;9.39;63.01
10958;BME280;5531;42.570;23.676;2023-04-27T08:25:19;91816.44;;;9.47;58.79
10958;BME280;5531;42.570;23.676;2023-04-27T08:27:49;91812.22;;;9.60;59.09
10958;BME280;5531;42.570;23.676;2023-04-27T08:30:18;91818.97;;;9.82;58.59
10958;BME280;5531;42.570;23.676;2023-04-27T08:32:47;91819.22;;;9.94;58.58
10958;BME280;5531;42.570;23.676;2023-04-27T08:35:16;91824.44;;;9.94;57.77
10958;BME280;5531;42.570;23.676;2023-04-27T08:37:48;91827.50;;;9.56;57.44
10958;BME280;5531;42.570;23.676;2023-04-27T08:40:18;91829.19;;;9.70;62.58
10958;BME280;5531;42.570;23.676;2023-04-27T08:42:54;91841.28;;;9.71;56.92
10958;BME280;5531;42.570;23.676;2023-04-27T08:45:24;91815.94;;;9.85;60.95
10958;BME280;5531;42.570;23.676;2023-04-27T08:47:54;91821.59;;;9.89;56.52
10958;BME280;5531;42.570;23.676;2023-04-27T08:50:23;91823.44;;;10.02;57.65
10958;BME280;5531;42.570;23.676;2023-04-27T08:52:55;91820.84;;;10.08;57.15
10958;BME280;5531;42.570;23.676;2023-04-27T08:55:24;91826.41;;;9.85;56.42
10958;BME280;5531;42.570;23.676;2023-04-27T08:57:55;91819.41;;;9.99;62.02
10958;BME280;5531;42.570;23.676;2023-04-27T09:00:26;91816.84;;;10.13;56.18
10958;BME280;5531;42.570;23.676;2023-04-27T09:02:56;91842.63;;;10.22;56.97
10958;BME280;5531;42.570;23.676;2023-04-27T09:05:28;91818.84;;;10.11;56.21
10958;BME280;5531;42.570;23.676;2023-04-27T09:08:02;91828.69;;;10.15;56.43
10958;BME280;5531;42.570;23.676;2023-04-27T09:10:44;91824.69;;;10.26;56.70
10958;BME280;5531;42.570;23.676;2023-04-27T09:13:14;91833.22;;;10.41;56.11
10958;BME280;5531;42.570;23.676;2023-04-27T09:15:44;91815.28;;;10.52;55.79
10958;BME280;5531;42.570;23.676;2023-04-27T09:18:15;91810.06;;;10.38;53.90
10958;BME280;5531;42.570;23.676;2023-04-27T09:20:46;91821.47;;;10.24;54.55
10958;BME280;5531;42.570;23.676;2023-04-27T09:23:28;91813.66;;;10.44;61.85
10958;BME280;5531;42.570;23.676;2023-04-27T09:25:58;91820.13;;;10.68;58.31
10958;BME280;5531;42.570;23.676;2023-04-27T09:28:28;91822.34;;;10.71;56.20
10958;BME280;5531;42.570;23.676;2023-04-27T09:31:00;91819.34;;;10.61;56.48
10958;BME280;5531;42.570;23.676;2023-04-27T09:33:31;91821.13;;;10.87;55.58
10958;BME280;5531;42.570;23.676;2023-04-27T09:36:03;91817.28;;;10.96;55.26
10958;BME280;5531;42.570;23.676;2023-04-27T09:38:35;91813.44;;;11.12;54.10
10958;BME280;5531;42.570;23.676;2023-04-27T09:41:05;91802.28;;;11.30;55.90
10958;BME280;5531;42.570;23.676;2023-04-27T09:43:36;91810.34;;;11.35;52.24
10958;BME280;5531;42.570;23.676;2023-04-27T09:46:06;91803.06;;;11.44;54.21
10958;BME280;5531;42.570;23.676;2023-04-27T09:48:38;91806.53;;;11.38;50.60
10958;BME280;5531;42.570;23.676;2023-04-27T09:51:07;91804.94;;;11.24;54.01
10958;BME280;5531;42.570;23.676;2023-04-27T09:53:43;91806.13;;;11.21;55.90
10958;BME280;5531;42.570;23.676;2023-04-27T09:56:26;91808.41;;;10.97;54.75
10958;BME280;5531;42.570;23.676;2023-04-27T09:59:13;91814.66;;;11.10;55.69
10958;BME280;5531;42.570;23.676;2023-04-27T10:01:49;91808.56;;;11.16;52.18
10958;BME280;5531;42.570;23.676;2023-04-27T10:04:38;91806.94;;;11.28;54.24
10958;BME280;5531;42.570;23.676;2023-04-27T10:07:14;91791.00;;;11.30;52.98
10958;BME280;5531;42.570;23.676;2023-04-27T10:09:48;91793.47;;;11.70;58.09
10958;BME280;5531;42.570;23.676;2023-04-27T10:12:20;91794.41;;;11.96;52.70
10958;BME280;5531;42.570;23.676;2023-04-27T10:14:51;91793.25;;;11.71;51.92
10958;BME280;5531;42.570;23.676;2023-04-27T10:17:27;91813.56;;;11.44;53.91
10958;BME280;5531;42.570;23.676;2023-04-27T10:19:58;91803.28;;;11.29;47.93
10958;BME280;5531;42.570;23.676;2023-04-27T10:22:37;91804.44;;;11.53;50.84
10958;BME280;5531;42.570;23.676;2023-04-27T10:25:20;91811.84;;;11.70;50.80
10958;BME280;5531;42.570;23.676;2023-04-27T10:27:52;91800.19;;;11.59;51.81
10958;BME280;5531;42.570;23.676;2023-04-27T10:30:23;91808.84;;;11.66;52.58
10958;BME280;5531;42.570;23.676;2023-04-27T10:32:54;91814.31;;;11.58;50.06
10958;BME280;5531;42.570;23.676;2023-04-27T10:35:32;91798.38;;;11.60;51.85
10958;BME280;5531;42.570;23.676;2023-04-27T10:38:08;91808.88;;;11.60;50.27
10958;BME280;5531;42.570;23.676;2023-04-27T10:40:40;91803.81;;;11.58;47.38
10958;BME280;5531;42.570;23.676;2023-04-27T10:43:13;91803.78;;;11.65;50.74
10958;BME280;5531;42.570;23.676;2023-04-27T10:45:43;91805.38;;;11.72;53.43
10958;BME280;5531;42.570;23.676;2023-04-27T10:48:13;91801.19;;;11.58;49.74
10958;BME280;5531;42.570;23.676;2023-04-27T10:50:43;91802.22;;;11.57;52.90
10958;BME280;5531;42.570;23.676;2023-04-27T10:53:12;91799.97;;;11.67;49.95
10958;BME280;5531;42.570;23.676;2023-04-27T10:55:45;91802.53;;;11.81;49.53
10958;BME280;5531;42.570;23.676;2023-04-27T10:58:13;91804.91;;;11.89;49.33
10958;BME280;5531;42.570;23.676;2023-04-27T11:00:43;91803.66;;;12.05;49.29
10958;BME280;5531;42.570;23.676;2023-04-27T11:03:14;91796.16;;;12.08;49.81
10958;BME280;5531;42.570;23.676;2023-04-27T11:05:45;91794.75;;;12.38;52.89
10958;BME280;5531;42.570;23.676;2023-04-27T11:08:17;91791.91;;;12.64;49.83
10958;BME280;5531;42.570;23.676;2023-04-27T11:10:50;91805.00;;;12.46;46.81
10958;BME280;5531;42.570;23.676;2023-04-27T11:13:21;91795.34;;;12.40;50.30
10958;BME280;5531;42.570;23.676;2023-04-27T11:15:51;91796.28;;;12.52;48.21
10958;BME280;5531;42.570;23.676;2023-04-27T11:18:23;91806.00;;;12.45;50.02
10958;BME280;5531;42.570;23.676;2023-04-27T11:21:04;91796.38;;;12.64;51.15
10958;BME280;5531;42.570;23.676;2023-04-27T11:23:34;91793.38;;;12.60;52.20
10958;BME280;5531;42.570;23.676;2023-04-27T11:26:14;91795.59;;;12.63;46.82
10958;BME280;5531;42.570;23.676;2023-04-27T11:28:44;91804.69;;;12.61;46.67
10958;BME280;5531;42.570;23.676;2023-04-27T11:31:24;91788.50;;;12.39;46.67
10958;BME280;5531;42.570;23.676;2023-04-27T11:33:54;91803.63;;;12.43;50.13
10958;BME280;5531;42.570;23.676;2023-04-27T11:36:23;91785.22;;;12.69;44.77
10958;BME280;5531;42.570;23.676;2023-04-27T11:38:56;91792.34;;;12.87;46.90
10958;BME280;5531;42.570;23.676;2023-04-27T11:41:35;91804.00;;;12.97;42.84
10958;BME280;5531;42.570;23.676;2023-04-27T11:44:05;91802.22;;;12.91;43.95
10958;BME280;5531;42.570;23.676;2023-04-27T11:46:35;91801.97;;;12.99;44.08
10958;BME280;5531;42.570;23.676;2023-04-27T11:49:06;91805.88;;;13.15;44.57
10958;BME280;5531;42.570;23.676;2023-04-27T11:51:36;91806.09;;;12.89;46.25
10958;BME280;5531;42.570;23.676;2023-04-27T11:54:09;91810.34;;;12.90;43.04
10958;BME280;5531;42.570;23.676;2023-04-27T11:56:42;91803.16;;;12.53;44.04
10958;BME280;5531;42.570;23.676;2023-04-27T11:59:18;91806.31;;;12.30;46.51
10958;BME280;5531;42.570;23.676;2023-04-27T12:01:47;91807.06;;;12.44;47.04
10958;BME280;5531;42.570;23.676;2023-04-27T12:04:17;91804.16;;;12.77;46.83
10958;BME280;5531;42.570;23.676;2023-04-27T12:06:46;91809.00;;;12.80;45.50
10958;BME280;5531;42.570;23.676;2023-04-27T12:09:15;91815.63;;;12.58;46.79
10958;BME280;5531;42.570;23.676;2023-04-27T12:11:47;91812.41;;;12.56;47.29
10958;BME280;5531;42.570;23.676;2023-04-27T12:14:16;91809.91;;;12.68;46.81
10958;BME280;5531;42.570;23.676;2023-04-27T12:16:45;91811.09;;;12.72;45.52
10958;BME280;5531;42.570;23.676;2023-04-27T12:19:14;91818.94;;;12.46;44.53
10958;BME280;5531;42.570;23.676;2023-04-27T12:21:43;91808.84;;;12.12;46.62
10958;BME280;5531;42.570;23.676;2023-04-27T12:24:13;91810.06;;;12.09;46.15
10958;BME280;5531;42.570;23.676;2023-04-27T12:26:42;91808.44;;;12.15;45.65
10958;BME280;5531;42.570;23.676;2023-04-27T12:29:14;91811.28;;;12.13;47.33
10958;BME280;5531;42.570;23.676;2023-04-27T12:31:43;91807.59;;;12.21;48.99
10958;BME280;5531;42.570;23.676;2023-04-27T12:34:12;91810.94;;;12.35;49.77
10958;BME280;5531;42.570;23.676;2023-04-27T12:36:41;91809.69;;;12.69;49.59
10958;BME280;5531;42.570;23.676;2023-04-27T12:39:14;91809.84;;;12.49;44.55
10958;BME280;5531;42.570;23.676;2023-04-27T12:41:45;91813.16;;;12.38;45.28
10958;BME280;5531;42.570;23.676;2023-04-27T12:44:18;91813.50;;;12.16;48.51
10958;BME280;5531;42.570;23.676;2023-04-27T12:46:47;91818.91;;;12.21;46.74
10958;BME280;5531;42.570;23.676;2023-04-27T12:49:17;91821.19;;;12.11;46.56
10958;BME280;5531;42.570;23.676;2023-04-27T12:51:46;91816.75;;;12.12;46.09
10958;BME280;5531;42.570;23.676;2023-04-27T12:54:16;91813.91;;;12.13;47.92
10958;BME280;5531;42.570;23.676;2023-04-27T12:56:45;91824.66;;;12.05;47.92
10958;BME280;5531;42.570;23.676;2023-04-27T12:59:17;91807.31;;;11.90;47.25
10958;BME280;5531;42.570;23.676;2023-04-27T13:01:46;91813.78;;;11.88;46.98
10958;BME280;5531;42.570;23.676;2023-04-27T13:04:18;91815.19;;;11.90;47.73
10958;BME280;5531;42.570;23.676;2023-04-27T13:06:47;91817.47;;;11.80;46.65
10958;BME280;5531;42.570;23.676;2023-04-27T13:09:16;91819.84;;;11.88;47.04
10958;BME280;5531;42.570;23.676;2023-04-27T13:11:46;91811.19;;;11.95;44.71
10958;BME280;5531;42.570;23.676;2023-04-27T13:14:17;91805.50;;;11.98;45.77
10958;BME280;5531;42.570;23.676;2023-04-27T13:16:47;91812.91;;;12.14;46.98
10958;BME280;5531;42.570;23.676;2023-04-27T13:19:16;91817.03;;;12.28;45.19
10958;BME280;5531;42.570;23.676;2023-04-27T13:21:45;91817.66;;;12.31;45.35
10958;BME280;5531;42.570;23.676;2023-04-27T13:24:14;91811.25;;;12.20;45.95
10958;BME280;5531;42.570;23.676;2023-04-27T13:26:43;91808.56;;;12.26;46.75